sensor_id;sensor_type;location;lat;lon;timestamp;P1;durP1;ratioP1;P2;durP2;ratioP2
50350;SDS011;36250;48.740;22.174;2023-05-10T00:01:26;17.75;;;5.22;;
50350;SDS011;36250;48.740;22.174;2023-05-10T00:03:51;8.95;;;3.22;;
50350;SDS011;36250;48.740;22.174;2023-05-10T00:06:17;5.55;;;3.30;;
50350;SDS011;36250;48.740;22.174;2023-05-10T00:08:42;4.03;;;3.45;;
50350;SDS011;36250;48.740;22.174;2023-05-10T00:11:08;5.40;;;3.22;;
50350;SDS011;36250;48.740;22.174;2023-05-10T00:13:33;5.50;;;2.97;;
50350;SDS011;36250;48.740;22.174;2023-05-10T00:15:59;4.82;;;3.25;;
50350;SDS011;36250;48.740;22.174;2023-05-10T00:18:24;7.72;;;4.57;;
50350;SDS011;36250;48.740;22.174;2023-05-10T00:20:49;8.95;;;5.90;;
50350;SDS011;36250;48.740;22.174;2023-05-10T00:23:15;6.90;;;5.22;;
50350;SDS011;36250;48.740;22.174;2023-05-10T00:25:40;6.38;;;4.28;;
50350;SDS011;36250;48.740;22.174;2023-05-10T00:28:06;4.78;;;3.80;;
50350;SDS011;36250;48.740;22.174;2023-05-10T00:30:31;10.77;;;3.50;;
50350;SDS011;36250;48.740;22.174;2023-05-10T00:32:56;6.35;;;3.03;;
50350;SDS011;36250;48.740;22.174;2023-05-10T00:35:22;5.45;;;3.50;;
50350;SDS011;36250;48.740;22.174;2023-05-10T00:37:47;5.30;;;2.92;;
50350;SDS011;36250;48.740;22.174;2023-05-10T00:40:13;8.48;;;3.03;;
50350;SDS011;36250;48.740;22.174;2023-05-10T00:42:38;9.07;;;3.58;;
50350;SDS011;36250;48.740;22.174;2023-05-10T00:45:04;7.25;;;3.17;;
50350;SDS011;36250;48.740;22.174;2023-05-10T00:47:30;7.28;;;3.88;;
50350;SDS011;36250;48.740;22.174;2023-05-10T00:49:56;5.55;;;3.30;;
50350;SDS011;36250;48.740;22.174;2023-05-10T00:52:21;3.72;;;2.90;;
50350;SDS011;36250;48.740;22.174;2023-05-10T00:54:49;4.25;;;3.10;;
50350;SDS011;36250;48.740;22.174;2023-05-10T00:57:16;3.78;;;3.35;;
50350;SDS011;36250;48.740;22.174;2023-05-10T00:59:42;7.70;;;3.80;;
50350;SDS011;36250;48.740;22.174;2023-05-10T01:02:07;5.82;;;2.80;;
50350;SDS011;36250;48.740;22.174;2023-05-10T01:04:32;5.38;;;3.17;;
50350;SDS011;36250;48.740;22.174;2023-05-10T01:06:58;4.13;;;3.05;;
50350;SDS011;36250;48.740;22.174;2023-05-10T01:09:24;5.40;;;3.00;;
50350;SDS011;36250;48.740;22.174;2023-05-10T01:11:51;6.45;;;2.35;;
50350;SDS011;36250;48.740;22.174;2023-05-10T01:14:18;7.32;;;3.08;;
50350;SDS011;36250;48.740;22.174;2023-05-10T01:16:44;4.82;;;3.03;;
50350;SDS011;36250;48.740;22.174;2023-05-10T01:25:03;9.80;;;4.03;;
50350;SDS011;36250;48.740;22.174;2023-05-10T01:44:18;8.48;;;6.55;;
50350;SDS011;36250;48.740;22.174;2023-05-10T01:46:58;12.23;;;8.07;;
50350;SDS011;36250;48.740;22.174;2023-05-10T01:49:32;11.57;;;8.38;;
50350;SDS011;36250;48.740;22.174;2023-05-10T01:52:04;10.73;;;9.18;;
50350;SDS011;36250;48.740;22.174;2023-05-10T01:54:33;7.82;;;6.10;;
50350;SDS011;36250;48.740;22.174;2023-05-10T01:57:01;7.57;;;5.38;;
50350;SDS011;36250;48.740;22.174;2023-05-10T01:59:30;8.98;;;5.22;;
50350;SDS011;36250;48.740;22.174;2023-05-10T02:02:01;6.60;;;4.40;;
50350;SDS011;36250;48.740;22.174;2023-05-10T02:04:29;6.82;;;4.05;;
50350;SDS011;36250;48.740;22.174;2023-05-10T02:06:56;5.60;;;4.03;;
50350;SDS011;36250;48.740;22.174;2023-05-10T02:09:22;4.78;;;3.95;;
50350;SDS011;36250;48.740;22.174;2023-05-10T02:11:50;9.52;;;3.10;;
50350;SDS011;36250;48.740;22.174;2023-05-10T02:14:17;5.65;;;3.38;;
50350;SDS011;36250;48.740;22.174;2023-05-10T02:16:44;5.80;;;2.90;;
50350;SDS011;36250;48.740;22.174;2023-05-10T02:19:11;3.25;;;2.78;;
50350;SDS011;36250;48.740;22.174;2023-05-10T02:21:39;3.20;;;2.90;;
50350;SDS011;36250;48.740;22.174;2023-05-10T02:24:05;3.08;;;2.67;;
50350;SDS011;36250;48.740;22.174;2023-05-10T02:26:31;2.97;;;2.55;;
50350;SDS011;36250;48.740;22.174;2023-05-10T02:28:59;4.18;;;3.15;;
50350;SDS011;36250;48.740;22.174;2023-05-10T02:31:28;4.85;;;3.35;;
50350;SDS011;36250;48.740;22.174;2023-05-10T02:33:54;5.35;;;3.80;;
50350;SDS011;36250;48.740;22.174;2023-05-10T02:36:20;7.43;;;4.25;;
50350;SDS011;36250;48.740;22.174;2023-05-10T02:38:47;5.20;;;3.67;;
50350;SDS011;36250;48.740;22.174;2023-05-10T02:41:15;6.22;;;3.35;;
50350;SDS011;36250;48.740;22.174;2023-05-10T02:43:41;7.38;;;3.20;;
50350;SDS011;36250;48.740;22.174;2023-05-10T02:46:07;4.18;;;2.85;;
50350;SDS011;36250;48.740;22.174;2023-05-10T02:48:32;5.28;;;3.28;;
50350;SDS011;36250;48.740;22.174;2023-05-10T02:51:00;5.65;;;3.40;;
50350;SDS011;36250;48.740;22.174;2023-05-10T02:53:33;6.18;;;3.83;;
50350;SDS011;36250;48.740;22.174;2023-05-10T02:56:01;5.57;;;3.53;;
50350;SDS011;36250;48.740;22.174;2023-05-10T02:58:31;7.47;;;4.75;;
50350;SDS011;36250;48.740;22.174;2023-05-10T03:00:57;8.52;;;4.00;;
50350;SDS011;36250;48.740;22.174;2023-05-10T03:03:23;5.03;;;3.50;;
50350;SDS011;36250;48.740;22.174;2023-05-10T03:05:48;8.63;;;5.15;;
50350;SDS011;36250;48.740;22.174;2023-05-10T03:08:13;9.77;;;5.28;;
50350;SDS011;36250;48.740;22.174;2023-05-10T03:10:47;14.65;;;5.78;;
50350;SDS011;36250;48.740;22.174;2023-05-10T03:13:29;9.18;;;6.18;;
50350;SDS011;36250;48.740;22.174;2023-05-10T03:16:10;7.75;;;5.22;;
50350;SDS011;36250;48.740;22.174;2023-05-10T03:18:42;6.38;;;3.50;;
50350;SDS011;36250;48.740;22.174;2023-05-10T03:21:12;6.00;;;3.33;;
50350;SDS011;36250;48.740;22.174;2023-05-10T03:23:41;5.22;;;3.40;;
50350;SDS011;36250;48.740;22.174;2023-05-10T03:26:09;8.18;;;3.45;;
50350;SDS011;36250;48.740;22.174;2023-05-10T03:28:40;3.33;;;3.00;;
50350;SDS011;36250;48.740;22.174;2023-05-10T03:31:06;5.60;;;2.80;;
50350;SDS011;36250;48.740;22.174;2023-05-10T03:33:32;2.50;;;2.30;;
50350;SDS011;36250;48.740;22.174;2023-05-10T03:35:58;4.40;;;2.90;;
50350;SDS011;36250;48.740;22.174;2023-05-10T03:38:23;3.13;;;2.83;;
50350;SDS011;36250;48.740;22.174;2023-05-10T03:40:48;3.72;;;2.65;;
50350;SDS011;36250;48.740;22.174;2023-05-10T03:43:14;17.60;;;3.42;;
50350;SDS011;36250;48.740;22.174;2023-05-10T03:45:39;4.25;;;2.90;;
50350;SDS011;36250;48.740;22.174;2023-05-10T03:48:04;5.97;;;3.17;;
50350;SDS011;36250;48.740;22.174;2023-05-10T03:50:30;6.03;;;3.38;;
50350;SDS011;36250;48.740;22.174;2023-05-10T03:52:55;5.07;;;3.95;;
50350;SDS011;36250;48.740;22.174;2023-05-10T03:55:22;2.85;;;2.65;;
50350;SDS011;36250;48.740;22.174;2023-05-10T03:57:47;6.28;;;3.35;;
50350;SDS011;36250;48.740;22.174;2023-05-10T04:00:14;3.05;;;2.75;;
50350;SDS011;36250;48.740;22.174;2023-05-10T04:02:40;4.47;;;3.00;;
50350;SDS011;36250;48.740;22.174;2023-05-10T04:05:05;4.03;;;2.95;;
50350;SDS011;36250;48.740;22.174;2023-05-10T04:07:31;2.85;;;2.65;;
50350;SDS011;36250;48.740;22.174;2023-05-10T04:09:56;5.25;;;3.38;;
50350;SDS011;36250;48.740;22.174;2023-05-10T04:12:22;4.68;;;2.72;;
50350;SDS011;36250;48.740;22.174;2023-05-10T04:14:47;12.27;;;2.50;;
50350;SDS011;36250;48.740;22.174;2023-05-10T04:17:12;5.70;;;2.58;;
50350;SDS011;36250;48.740;22.174;2023-05-10T04:19:38;3.20;;;2.47;;
50350;SDS011;36250;48.740;22.174;2023-05-10T04:22:03;4.18;;;2.03;;
50350;SDS011;36250;48.740;22.174;2023-05-10T04:24:29;3.65;;;2.20;;
50350;SDS011;36250;48.740;22.174;2023-05-10T04:26:54;4.53;;;3.40;;
50350;SDS011;36250;48.740;22.174;2023-05-10T04:29:20;6.22;;;2.67;;
50350;SDS011;36250;48.740;22.174;2023-05-10T04:31:46;3.75;;;2.83;;
50350;SDS011;36250;48.740;22.174;2023-05-10T04:34:11;5.00;;;2.80;;
50350;SDS011;36250;48.740;22.174;2023-05-10T04:36:36;7.63;;;2.53;;
50350;SDS011;36250;48.740;22.174;2023-05-10T04:39:02;2.70;;;2.17;;
50350;SDS011;36250;48.740;22.174;2023-05-10T04:41:28;3.58;;;2.50;;
50350;SDS011;36250;48.740;22.174;2023-05-10T04:43:53;5.07;;;2.80;;
50350;SDS011;36250;48.740;22.174;2023-05-10T04:46:19;3.38;;;2.92;;
50350;SDS011;36250;48.740;22.174;2023-05-10T04:48:44;6.05;;;3.70;;
50350;SDS011;36250;48.740;22.174;2023-05-10T04:51:10;4.75;;;2.65;;
50350;SDS011;36250;48.740;22.174;2023-05-10T04:53:36;4.15;;;2.85;;
50350;SDS011;36250;48.740;22.174;2023-05-10T04:56:01;3.53;;;2.67;;
50350;SDS011;36250;48.740;22.174;2023-05-10T04:58:27;4.40;;;2.65;;
50350;SDS011;36250;48.740;22.174;2023-05-10T05:00:52;3.83;;;2.80;;
50350;SDS011;36250;48.740;22.174;2023-05-10T05:03:17;6.65;;;2.95;;
50350;SDS011;36250;48.740;22.174;2023-05-10T05:05:43;3.28;;;2.97;;
50350;SDS011;36250;48.740;22.174;2023-05-10T05:08:09;3.90;;;2.40;;
50350;SDS011;36250;48.740;22.174;2023-05-10T05:10:34;4.10;;;2.45;;
50350;SDS011;36250;48.740;22.174;2023-05-10T05:13:00;5.70;;;2.80;;
50350;SDS011;36250;48.740;22.174;2023-05-10T05:15:25;6.38;;;2.47;;
50350;SDS011;36250;48.740;22.174;2023-05-10T05:17:50;3.45;;;2.85;;
50350;SDS011;36250;48.740;22.174;2023-05-10T05:20:16;4.75;;;2.42;;
50350;SDS011;36250;48.740;22.174;2023-05-10T05:22:42;6.47;;;3.47;;
50350;SDS011;36250;48.740;22.174;2023-05-10T05:25:08;5.05;;;2.90;;
50350;SDS011;36250;48.740;22.174;2023-05-10T05:27:33;11.80;;;3.15;;
50350;SDS011;36250;48.740;22.174;2023-05-10T05:29:58;4.90;;;2.58;;
50350;SDS011;36250;48.740;22.174;2023-05-10T05:32:24;5.18;;;2.50;;
50350;SDS011;36250;48.740;22.174;2023-05-10T05:34:50;10.38;;;2.42;;
50350;SDS011;36250;48.740;22.174;2023-05-10T05:37:16;6.55;;;2.53;;
50350;SDS011;36250;48.740;22.174;2023-05-10T05:39:42;5.25;;;3.13;;
50350;SDS011;36250;48.740;22.174;2023-05-10T05:42:09;2.38;;;1.83;;
50350;SDS011;36250;48.740;22.174;2023-05-10T05:44:35;4.32;;;2.33;;
50350;SDS011;36250;48.740;22.174;2023-05-10T05:47:00;4.85;;;2.30;;
50350;SDS011;36250;48.740;22.174;2023-05-10T05:49:25;2.30;;;2.10;;
50350;SDS011;36250;48.740;22.174;2023-05-10T05:51:51;4.10;;;2.17;;
50350;SDS011;36250;48.740;22.174;2023-05-10T05:54:16;2.58;;;1.83;;
50350;SDS011;36250;48.740;22.174;2023-05-10T05:56:41;2.40;;;2.20;;
50350;SDS011;36250;48.740;22.174;2023-05-10T05:59:07;2.28;;;2.08;;
50350;SDS011;36250;48.740;22.174;2023-05-10T06:01:32;2.58;;;2.10;;
50350;SDS011;36250;48.740;22.174;2023-05-10T06:03:58;3.40;;;3.10;;
50350;SDS011;36250;48.740;22.174;2023-05-10T06:06:23;6.35;;;2.33;;
50350;SDS011;36250;48.740;22.174;2023-05-10T06:08:49;2.50;;;2.17;;
50350;SDS011;36250;48.740;22.174;2023-05-10T06:11:14;2.35;;;2.15;;
50350;SDS011;36250;48.740;22.174;2023-05-10T06:13:39;4.20;;;1.98;;
50350;SDS011;36250;48.740;22.174;2023-05-10T06:16:05;2.97;;;2.10;;
50350;SDS011;36250;48.740;22.174;2023-05-10T06:18:30;4.82;;;1.92;;
50350;SDS011;36250;48.740;22.174;2023-05-10T06:20:56;6.57;;;2.35;;
50350;SDS011;36250;48.740;22.174;2023-05-10T06:23:22;3.45;;;2.47;;
50350;SDS011;36250;48.740;22.174;2023-05-10T06:25:47;8.55;;;3.85;;
50350;SDS011;36250;48.740;22.174;2023-05-10T06:28:13;2.70;;;2.15;;
50350;SDS011;36250;48.740;22.174;2023-05-10T06:30:38;3.75;;;2.20;;
50350;SDS011;36250;48.740;22.174;2023-05-10T06:33:03;4.30;;;1.80;;
50350;SDS011;36250;48.740;22.174;2023-05-10T06:35:29;3.22;;;2.00;;
50350;SDS011;36250;48.740;22.174;2023-05-10T06:37:56;3.85;;;2.65;;
50350;SDS011;36250;48.740;22.174;2023-05-10T06:40:21;3.58;;;1.90;;
50350;SDS011;36250;48.740;22.174;2023-05-10T06:42:47;2.78;;;1.90;;
50350;SDS011;36250;48.740;22.174;2023-05-10T06:45:13;2.25;;;1.85;;
50350;SDS011;36250;48.740;22.174;2023-05-10T06:47:39;2.05;;;1.83;;
50350;SDS011;36250;48.740;22.174;2023-05-10T06:50:05;3.58;;;2.25;;
50350;SDS011;36250;48.740;22.174;2023-05-10T06:52:31;3.22;;;2.03;;
50350;SDS011;36250;48.740;22.174;2023-05-10T06:54:57;5.78;;;2.20;;
50350;SDS011;36250;48.740;22.174;2023-05-10T06:57:22;8.10;;;1.92;;
50350;SDS011;36250;48.740;22.174;2023-05-10T06:59:47;13.25;;;2.20;;
50350;SDS011;36250;48.740;22.174;2023-05-10T07:02:13;2.30;;;1.90;;
50350;SDS011;36250;48.740;22.174;2023-05-10T07:04:40;7.28;;;2.30;;
50350;SDS011;36250;48.740;22.174;2023-05-10T07:07:05;5.05;;;1.95;;
50350;SDS011;36250;48.740;22.174;2023-05-10T07:09:30;4.30;;;2.22;;
50350;SDS011;36250;48.740;22.174;2023-05-10T07:11:55;7.75;;;2.83;;
50350;SDS011;36250;48.740;22.174;2023-05-10T07:14:22;5.75;;;2.33;;
50350;SDS011;36250;48.740;22.174;2023-05-10T07:16:48;3.30;;;2.45;;
50350;SDS011;36250;48.740;22.174;2023-05-10T07:19:13;5.45;;;2.20;;
50350;SDS011;36250;48.740;22.174;2023-05-10T07:21:39;4.55;;;2.80;;
50350;SDS011;36250;48.740;22.174;2023-05-10T07:24:05;5.47;;;2.15;;
50350;SDS011;36250;48.740;22.174;2023-05-10T07:26:30;2.95;;;2.13;;
50350;SDS011;36250;48.740;22.174;2023-05-10T07:28:56;5.45;;;2.25;;
50350;SDS011;36250;48.740;22.174;2023-05-10T07:31:21;4.65;;;2.50;;
50350;SDS011;36250;48.740;22.174;2023-05-10T07:33:47;4.32;;;1.70;;
50350;SDS011;36250;48.740;22.174;2023-05-10T07:36:12;4.65;;;2.13;;
50350;SDS011;36250;48.740;22.174;2023-05-10T07:38:38;2.22;;;1.77;;
50350;SDS011;36250;48.740;22.174;2023-05-10T07:41:03;3.10;;;2.20;;
50350;SDS011;36250;48.740;22.174;2023-05-10T07:43:28;3.60;;;2.25;;
50350;SDS011;36250;48.740;22.174;2023-05-10T07:45:54;2.17;;;1.95;;
50350;SDS011;36250;48.740;22.174;2023-05-10T07:48:19;3.10;;;1.90;;
50350;SDS011;36250;48.740;22.174;2023-05-10T07:50:44;3.05;;;2.22;;
50350;SDS011;36250;48.740;22.174;2023-05-10T07:53:10;5.72;;;2.30;;
50350;SDS011;36250;48.740;22.174;2023-05-10T07:55:35;7.35;;;1.88;;
50350;SDS011;36250;48.740;22.174;2023-05-10T07:58:00;6.93;;;1.98;;
50350;SDS011;36250;48.740;22.174;2023-05-10T08:00:26;4.15;;;2.80;;
50350;SDS011;36250;48.740;22.174;2023-05-10T08:02:51;2.88;;;2.65;;
50350;SDS011;36250;48.740;22.174;2023-05-10T08:05:17;9.35;;;2.45;;
50350;SDS011;36250;48.740;22.174;2023-05-10T08:07:43;5.57;;;2.72;;
50350;SDS011;36250;48.740;22.174;2023-05-10T08:10:09;6.10;;;2.33;;
50350;SDS011;36250;48.740;22.174;2023-05-10T08:12:36;8.43;;;2.33;;
50350;SDS011;36250;48.740;22.174;2023-05-10T08:15:01;4.20;;;2.03;;
50350;SDS011;36250;48.740;22.174;2023-05-10T08:17:26;5.78;;;2.40;;
50350;SDS011;36250;48.740;22.174;2023-05-10T08:19:52;2.65;;;2.10;;
50350;SDS011;36250;48.740;22.174;2023-05-10T08:22:17;3.78;;;2.28;;
50350;SDS011;36250;48.740;22.174;2023-05-10T08:24:42;3.47;;;2.17;;
50350;SDS011;36250;48.740;22.174;2023-05-10T08:27:08;7.38;;;2.90;;
50350;SDS011;36250;48.740;22.174;2023-05-10T08:29:33;5.07;;;2.22;;
50350;SDS011;36250;48.740;22.174;2023-05-10T08:31:59;4.45;;;2.50;;
50350;SDS011;36250;48.740;22.174;2023-05-10T08:34:25;5.30;;;2.40;;
50350;SDS011;36250;48.740;22.174;2023-05-10T08:36:51;2.13;;;1.98;;
50350;SDS011;36250;48.740;22.174;2023-05-10T08:39:16;2.97;;;2.35;;
50350;SDS011;36250;48.740;22.174;2023-05-10T08:41:42;6.78;;;2.00;;
50350;SDS011;36250;48.740;22.174;2023-05-10T08:44:09;6.10;;;2.25;;
50350;SDS011;36250;48.740;22.174;2023-05-10T08:46:35;2.25;;;2.00;;
50350;SDS011;36250;48.740;22.174;2023-05-10T08:49:04;7.75;;;1.95;;
50350;SDS011;36250;48.740;22.174;2023-05-10T08:51:34;2.42;;;1.92;;
50350;SDS011;36250;48.740;22.174;2023-05-10T08:54:02;7.60;;;2.35;;
50350;SDS011;36250;48.740;22.174;2023-05-10T08:56:28;4.35;;;2.42;;
50350;SDS011;36250;48.740;22.174;2023-05-10T08:58:54;2.92;;;2.28;;
50350;SDS011;36250;48.740;22.174;2023-05-10T09:01:20;3.63;;;2.22;;
50350;SDS011;36250;48.740;22.174;2023-05-10T09:03:46;3.05;;;2.17;;
50350;SDS011;36250;48.740;22.174;2023-05-10T09:06:12;3.45;;;2.20;;
50350;SDS011;36250;48.740;22.174;2023-05-10T09:08:38;5.18;;;2.38;;
50350;SDS011;36250;48.740;22.174;2023-05-10T09:11:06;4.38;;;2.22;;
50350;SDS011;36250;48.740;22.174;2023-05-10T09:13:31;3.67;;;2.38;;
50350;SDS011;36250;48.740;22.174;2023-05-10T09:15:57;2.58;;;1.80;;
50350;SDS011;36250;48.740;22.174;2023-05-10T09:18:23;7.20;;;1.98;;
50350;SDS011;36250;48.740;22.174;2023-05-10T09:20:48;2.40;;;2.20;;
50350;SDS011;36250;48.740;22.174;2023-05-10T09:23:14;2.28;;;2.08;;
50350;SDS011;36250;48.740;22.174;2023-05-10T09:25:41;3.00;;;2.22;;
50350;SDS011;36250;48.740;22.174;2023-05-10T09:28:07;2.40;;;2.20;;
50350;SDS011;36250;48.740;22.174;2023-05-10T09:30:33;3.28;;;1.58;;
50350;SDS011;36250;48.740;22.174;2023-05-10T09:32:59;6.97;;;2.15;;
50350;SDS011;36250;48.740;22.174;2023-05-10T09:35:25;3.97;;;2.00;;
50350;SDS011;36250;48.740;22.174;2023-05-10T09:37:55;3.38;;;1.85;;
50350;SDS011;36250;48.740;22.174;2023-05-10T09:40:25;5.57;;;2.17;;
50350;SDS011;36250;48.740;22.174;2023-05-10T09:45:27;4.75;;;1.98;;
50350;SDS011;36250;48.740;22.174;2023-05-10T09:47:55;2.33;;;1.90;;
50350;SDS011;36250;48.740;22.174;2023-05-10T09:50:21;6.43;;;2.10;;
50350;SDS011;36250;48.740;22.174;2023-05-10T09:52:51;3.10;;;1.77;;
50350;SDS011;36250;48.740;22.174;2023-05-10T09:55:21;4.15;;;1.95;;
50350;SDS011;36250;48.740;22.174;2023-05-10T09:57:48;3.55;;;2.22;;
50350;SDS011;36250;48.740;22.174;2023-05-10T10:00:22;4.97;;;2.15;;
50350;SDS011;36250;48.740;22.174;2023-05-10T10:02:53;5.38;;;2.10;;
50350;SDS011;36250;48.740;22.174;2023-05-10T10:05:20;6.03;;;2.00;;
50350;SDS011;36250;48.740;22.174;2023-05-10T10:07:45;4.00;;;2.35;;
50350;SDS011;36250;48.740;22.174;2023-05-10T10:10:11;2.33;;;2.05;;
50350;SDS011;36250;48.740;22.174;2023-05-10T10:12:38;1.90;;;1.80;;
50350;SDS011;36250;48.740;22.174;2023-05-10T10:15:05;2.33;;;1.75;;
50350;SDS011;36250;48.740;22.174;2023-05-10T10:17:32;2.10;;;1.90;;
50350;SDS011;36250;48.740;22.174;2023-05-10T10:20:00;2.90;;;1.83;;
50350;SDS011;36250;48.740;22.174;2023-05-10T10:22:28;3.90;;;1.95;;
50350;SDS011;36250;48.740;22.174;2023-05-10T10:24:53;4.05;;;2.00;;
50350;SDS011;36250;48.740;22.174;2023-05-10T10:27:21;2.45;;;1.92;;
50350;SDS011;36250;48.740;22.174;2023-05-10T10:29:50;3.05;;;2.00;;
50350;SDS011;36250;48.740;22.174;2023-05-10T10:35:31;4.53;;;2.28;;
50350;SDS011;36250;48.740;22.174;2023-05-10T10:37:58;6.00;;;1.80;;
50350;SDS011;36250;48.740;22.174;2023-05-10T10:40:26;2.95;;;1.60;;
50350;SDS011;36250;48.740;22.174;2023-05-10T10:42:54;2.83;;;1.80;;
50350;SDS011;36250;48.740;22.174;2023-05-10T10:45:21;4.82;;;1.80;;
50350;SDS011;36250;48.740;22.174;2023-05-10T10:47:47;5.25;;;1.70;;
50350;SDS011;36250;48.740;22.174;2023-05-10T10:50:13;5.95;;;1.80;;
50350;SDS011;36250;48.740;22.174;2023-05-10T10:52:42;3.38;;;1.83;;
50350;SDS011;36250;48.740;22.174;2023-05-10T10:55:09;4.35;;;1.63;;
50350;SDS011;36250;48.740;22.174;2023-05-10T11:02:51;7.47;;;1.70;;
50350;SDS011;36250;48.740;22.174;2023-05-10T11:13:32;8.90;;;1.80;;
50350;SDS011;36250;48.740;22.174;2023-05-10T11:15:58;5.28;;;1.70;;
50350;SDS011;36250;48.740;22.174;2023-05-10T11:18:35;1.98;;;1.83;;
50350;SDS011;36250;48.740;22.174;2023-05-10T11:21:01;3.20;;;2.03;;
50350;SDS011;36250;48.740;22.174;2023-05-10T11:23:47;6.75;;;1.90;;
50350;SDS011;36250;48.740;22.174;2023-05-10T11:26:14;1.75;;;1.65;;
50350;SDS011;36250;48.740;22.174;2023-05-10T11:28:48;2.63;;;1.60;;
50350;SDS011;36250;48.740;22.174;2023-05-10T11:31:17;6.82;;;1.98;;
50350;SDS011;36250;48.740;22.174;2023-05-10T11:33:50;2.33;;;1.83;;
50350;SDS011;36250;48.740;22.174;2023-05-10T11:36:18;11.05;;;1.77;;
50350;SDS011;36250;48.740;22.174;2023-05-10T11:38:45;2.42;;;1.70;;
50350;SDS011;36250;48.740;22.174;2023-05-10T11:41:11;4.47;;;2.40;;
50350;SDS011;36250;48.740;22.174;2023-05-10T11:43:40;5.05;;;2.00;;
50350;SDS011;36250;48.740;22.174;2023-05-10T11:46:07;2.17;;;1.80;;
50350;SDS011;36250;48.740;22.174;2023-05-10T11:48:34;3.38;;;1.98;;
50350;SDS011;36250;48.740;22.174;2023-05-10T11:51:00;3.65;;;2.20;;
50350;SDS011;36250;48.740;22.174;2023-05-10T11:53:27;2.50;;;1.70;;
50350;SDS011;36250;48.740;22.174;2023-05-10T11:55:54;4.05;;;2.00;;
50350;SDS011;36250;48.740;22.174;2023-05-10T11:58:19;4.82;;;2.35;;
50350;SDS011;36250;48.740;22.174;2023-05-10T12:00:46;4.80;;;1.60;;
50350;SDS011;36250;48.740;22.174;2023-05-10T12:03:12;2.58;;;1.60;;
50350;SDS011;36250;48.740;22.174;2023-05-10T12:05:38;8.20;;;1.95;;
50350;SDS011;36250;48.740;22.174;2023-05-10T12:08:12;7.13;;;2.22;;
50350;SDS011;36250;48.740;22.174;2023-05-10T12:10:44;6.65;;;2.20;;
50350;SDS011;36250;48.740;22.174;2023-05-10T12:13:13;2.63;;;2.15;;
50350;SDS011;36250;48.740;22.174;2023-05-10T12:15:40;2.75;;;2.22;;
50350;SDS011;36250;48.740;22.174;2023-05-10T12:18:07;3.38;;;1.90;;
50350;SDS011;36250;48.740;22.174;2023-05-10T12:20:35;7.63;;;1.80;;
50350;SDS011;36250;48.740;22.174;2023-05-10T12:23:00;4.60;;;2.33;;
50350;SDS011;36250;48.740;22.174;2023-05-10T12:25:32;2.25;;;1.90;;
50350;SDS011;36250;48.740;22.174;2023-05-10T12:27:59;3.78;;;2.13;;
50350;SDS011;36250;48.740;22.174;2023-05-10T12:30:28;3.58;;;1.90;;
50350;SDS011;36250;48.740;22.174;2023-05-10T12:32:59;2.70;;;1.98;;
50350;SDS011;36250;48.740;22.174;2023-05-10T12:35:32;3.50;;;1.92;;
50350;SDS011;36250;48.740;22.174;2023-05-10T12:37:59;2.22;;;1.77;;
50350;SDS011;36250;48.740;22.174;2023-05-10T12:40:24;7.63;;;1.77;;
50350;SDS011;36250;48.740;22.174;2023-05-10T12:42:49;3.47;;;1.50;;
50350;SDS011;36250;48.740;22.174;2023-05-10T12:45:16;5.28;;;1.63;;
50350;SDS011;36250;48.740;22.174;2023-05-10T12:47:42;2.67;;;1.50;;
50350;SDS011;36250;48.740;22.174;2023-05-10T12:50:08;4.65;;;2.05;;
50350;SDS011;36250;48.740;22.174;2023-05-10T12:52:33;8.02;;;3.63;;
50350;SDS011;36250;48.740;22.174;2023-05-10T12:54:59;3.92;;;3.25;;
50350;SDS011;36250;48.740;22.174;2023-05-10T12:57:25;9.60;;;2.30;;
50350;SDS011;36250;48.740;22.174;2023-05-10T12:59:50;6.97;;;1.88;;
50350;SDS011;36250;48.740;22.174;2023-05-10T13:02:16;7.55;;;2.25;;
50350;SDS011;36250;48.740;22.174;2023-05-10T13:04:43;2.22;;;1.90;;
50350;SDS011;36250;48.740;22.174;2023-05-10T13:07:09;3.05;;;1.60;;
50350;SDS011;36250;48.740;22.174;2023-05-10T13:09:35;2.22;;;1.92;;
50350;SDS011;36250;48.740;22.174;2023-05-10T13:12:00;7.10;;;2.15;;
50350;SDS011;36250;48.740;22.174;2023-05-10T13:14:26;2.70;;;1.80;;
50350;SDS011;36250;48.740;22.174;2023-05-10T13:16:52;5.18;;;2.20;;
50350;SDS011;36250;48.740;22.174;2023-05-10T13:19:17;2.72;;;1.80;;
50350;SDS011;36250;48.740;22.174;2023-05-10T13:21:43;3.80;;;2.05;;
50350;SDS011;36250;48.740;22.174;2023-05-10T13:24:09;1.60;;;1.50;;
50350;SDS011;36250;48.740;22.174;2023-05-10T13:26:35;2.08;;;1.83;;
50350;SDS011;36250;48.740;22.174;2023-05-10T13:29:01;2.30;;;1.70;;
50350;SDS011;36250;48.740;22.174;2023-05-10T13:31:27;4.93;;;1.90;;
50350;SDS011;36250;48.740;22.174;2023-05-10T13:33:52;11.88;;;2.53;;
50350;SDS011;36250;48.740;22.174;2023-05-10T13:36:18;2.97;;;2.35;;
50350;SDS011;36250;48.740;22.174;2023-05-10T13:38:43;5.70;;;2.92;;
50350;SDS011;36250;48.740;22.174;2023-05-10T13:41:09;4.32;;;2.28;;
50350;SDS011;36250;48.740;22.174;2023-05-10T13:43:35;4.30;;;2.45;;
50350;SDS011;36250;48.740;22.174;2023-05-10T13:46:01;2.97;;;1.70;;
50350;SDS011;36250;48.740;22.174;2023-05-10T13:48:26;3.08;;;1.45;;
50350;SDS011;36250;48.740;22.174;2023-05-10T13:50:52;1.70;;;1.60;;
50350;SDS011;36250;48.740;22.174;2023-05-10T13:53:17;4.38;;;1.77;;
50350;SDS011;36250;48.740;22.174;2023-05-10T13:55:43;7.32;;;2.28;;
50350;SDS011;36250;48.740;22.174;2023-05-10T13:58:08;2.25;;;1.90;;
50350;SDS011;36250;48.740;22.174;2023-05-10T14:00:33;3.60;;;2.20;;
50350;SDS011;36250;48.740;22.174;2023-05-10T14:03:00;2.22;;;2.03;;
50350;SDS011;36250;48.740;22.174;2023-05-10T14:05:25;4.82;;;1.77;;
50350;SDS011;36250;48.740;22.174;2023-05-10T14:07:51;2.58;;;1.42;;
50350;SDS011;36250;48.740;22.174;2023-05-10T14:10:16;2.17;;;1.55;;
50350;SDS011;36250;48.740;22.174;2023-05-10T14:12:42;2.70;;;1.58;;
50350;SDS011;36250;48.740;22.174;2023-05-10T14:15:07;2.47;;;1.65;;
50350;SDS011;36250;48.740;22.174;2023-05-10T14:17:35;7.75;;;1.90;;
50350;SDS011;36250;48.740;22.174;2023-05-10T14:20:00;4.93;;;1.50;;
50350;SDS011;36250;48.740;22.174;2023-05-10T14:22:26;3.53;;;1.67;;
50350;SDS011;36250;48.740;22.174;2023-05-10T14:24:51;1.67;;;1.58;;
50350;SDS011;36250;48.740;22.174;2023-05-10T14:27:16;4.70;;;1.92;;
50350;SDS011;36250;48.740;22.174;2023-05-10T14:29:42;4.13;;;1.90;;
50350;SDS011;36250;48.740;22.174;2023-05-10T14:32:08;3.85;;;1.73;;
50350;SDS011;36250;48.740;22.174;2023-05-10T14:34:33;4.85;;;1.52;;
50350;SDS011;36250;48.740;22.174;2023-05-10T14:36:59;1.63;;;1.52;;
50350;SDS011;36250;48.740;22.174;2023-05-10T14:39:24;4.68;;;1.73;;
50350;SDS011;36250;48.740;22.174;2023-05-10T14:41:50;1.95;;;1.75;;
50350;SDS011;36250;48.740;22.174;2023-05-10T14:44:17;4.65;;;1.85;;
50350;SDS011;36250;48.740;22.174;2023-05-10T14:46:42;12.75;;;2.50;;
50350;SDS011;36250;48.740;22.174;2023-05-10T14:49:08;2.45;;;2.15;;
50350;SDS011;36250;48.740;22.174;2023-05-10T14:51:33;8.70;;;1.65;;
50350;SDS011;36250;48.740;22.174;2023-05-10T14:53:58;3.25;;;1.95;;
50350;SDS011;36250;48.740;22.174;2023-05-10T14:56:24;7.72;;;1.80;;
50350;SDS011;36250;48.740;22.174;2023-05-10T14:58:50;1.65;;;1.55;;
50350;SDS011;36250;48.740;22.174;2023-05-10T15:01:16;4.82;;;1.58;;
50350;SDS011;36250;48.740;22.174;2023-05-10T15:03:41;2.83;;;1.52;;
50350;SDS011;36250;48.740;22.174;2023-05-10T15:06:07;4.68;;;1.40;;
50350;SDS011;36250;48.740;22.174;2023-05-10T15:08:33;5.82;;;1.95;;
50350;SDS011;36250;48.740;22.174;2023-05-10T15:10:59;3.63;;;1.80;;